Weather Data

Pearl Creek Farm: 8878 N Farm Road 75, Walnut Grove MO 65770

<== Previous Day (Thursday 28 Apr 2016) | Next Day (Saturday 30 Apr 2016) ==>

Summary Precipitation Data For Friday 29 April 2016

ElementValueUnits
Precipitation0"
Notes(none)
SourcePearl Creek Farm

Summary Temperature Data For Friday 29 April 2016

ElementValueUnits
High Temperature64 oF
Low Temperature52 oF
Average Temperature58 oF
High Humidity93 %
Low Humidity70 %
Average Humidity81 %
SourceSpringfield-Branson National Airport (SGF)

Detail Temperature Data For Friday 29 April 2016

Date / TimeTemp (F)RH (%)Dew Pt (F)Report Date / TimeSource
2016-04-29 07:52:00 53 80 47.0 2017-12-29 17:00:26.17417 Springfield-Branson National Airport (SGF)
2016-04-29 08:52:00 52 89 49.0 2017-12-29 17:00:26.17417 Springfield-Branson National Airport (SGF)
2016-04-29 09:52:00 54 87 50.0 2017-12-29 17:00:26.17417 Springfield-Branson National Airport (SGF)
2016-04-29 17:52:00 60 90 57.0 2017-12-29 17:00:26.17417 Springfield-Branson National Airport (SGF)
2016-04-29 18:52:00 60 90 57.0 2017-12-29 17:00:26.17417 Springfield-Branson National Airport (SGF)
2016-04-29 19:52:00 60 90 57.0 2017-12-29 17:00:26.17417 Springfield-Branson National Airport (SGF)
2016-04-29 20:52:00 60 90 57.0 2017-12-29 17:00:26.17417 Springfield-Branson National Airport (SGF)
2016-04-29 21:52:00 60 90 57.0 2017-12-29 17:00:26.17417 Springfield-Branson National Airport (SGF)
2016-04-29 22:52:00 60 93 58.0 2017-12-29 17:00:26.17417 Springfield-Branson National Airport (SGF)
2016-04-29 23:52:00 61 90 58.0 2017-12-29 17:00:26.17417 Springfield-Branson National Airport (SGF)
2016-04-29 00:52:00 57 72 48.0 2017-12-29 17:00:26.17417 Springfield-Branson National Airport (SGF)
2016-04-29 01:52:00 56 75 48.0 2017-12-29 17:00:26.17417 Springfield-Branson National Airport (SGF)
2016-04-29 02:52:00 54 80 48.0 2017-12-29 17:00:26.17417 Springfield-Branson National Airport (SGF)
2016-04-29 03:52:00 53 77 46.0 2017-12-29 17:00:26.17417 Springfield-Branson National Airport (SGF)
2016-04-29 04:52:00 52 77 45.0 2017-12-29 17:00:26.17417 Springfield-Branson National Airport (SGF)
2016-04-29 05:52:00 53 77 46.0 2017-12-29 17:00:26.17417 Springfield-Branson National Airport (SGF)
2016-04-29 06:52:00 53 77 46.0 2017-12-29 17:00:26.17417 Springfield-Branson National Airport (SGF)
2016-04-29 10:52:00 59 78 52.0 2017-12-29 17:00:26.17417 Springfield-Branson National Airport (SGF)
2016-04-29 11:52:00 62 73 53.0 2017-12-29 17:00:26.17417 Springfield-Branson National Airport (SGF)
2016-04-29 12:52:00 63 70 53.0 2017-12-29 17:00:26.17417 Springfield-Branson National Airport (SGF)
2016-04-29 13:52:00 64 70 54.0 2017-12-29 17:00:26.17417 Springfield-Branson National Airport (SGF)
2016-04-29 14:52:00 63 73 54.0 2017-12-29 17:00:26.17417 Springfield-Branson National Airport (SGF)
2016-04-29 15:52:00 63 75 55.0 2017-12-29 17:00:26.17417 Springfield-Branson National Airport (SGF)
2016-04-29 16:52:00 62 78 55.0 2017-12-29 17:00:26.17417 Springfield-Branson National Airport (SGF)

A total of 24 rows are displayed.